createdAt,value
2019-05-06T00:01:46.545Z,92.93
2019-05-06T00:04:15.901Z,93.04
2019-05-06T00:06:45.423Z,93.23
2019-05-06T00:09:15.361Z,92.99
2019-05-06T00:11:44.924Z,92.98
2019-05-06T00:14:14.301Z,93.33
2019-05-06T00:16:47.372Z,93.33
2019-05-06T00:19:16.863Z,93.26
2019-05-06T00:21:46.307Z,93.36
2019-05-06T00:24:15.687Z,93.33
2019-05-06T00:27:04.737Z,93.42
2019-05-06T00:29:35.046Z,93.58
2019-05-06T00:32:04.630Z,93.74
2019-05-06T00:34:34.248Z,93.79
2019-05-06T00:37:04.145Z,93.72
2019-05-06T00:40:04.732Z,93.83
2019-05-06T00:42:56.049Z,93.96
2019-05-06T00:45:25.401Z,94.09
2019-05-06T00:47:54.772Z,94.10
2019-05-06T00:50:24.321Z,94.27
2019-05-06T00:52:55.827Z,94.45
2019-05-06T00:55:25.202Z,94.53
2019-05-06T00:57:54.635Z,95.09
2019-05-06T01:00:28.431Z,95.03
2019-05-06T01:02:57.888Z,95.11
2019-05-06T01:05:27.280Z,94.88
2019-05-06T01:07:56.707Z,95.00
2019-05-06T01:10:26.026Z,94.98
2019-05-06T01:13:04.235Z,95.28
2019-05-06T01:15:34.368Z,95.48
2019-05-06T01:18:04.292Z,95.65
2019-05-06T01:20:34.079Z,95.63
2019-05-06T01:23:03.829Z,95.75
2019-05-06T01:25:34.581Z,95.93
2019-05-06T01:28:04.337Z,96.04
2019-05-06T01:30:33.867Z,96.06
2019-05-06T01:33:03.939Z,96.05
2019-05-06T01:35:35.201Z,96.13
2019-05-06T01:38:24.320Z,96.11
2019-05-06T01:41:19.119Z,96.10
2019-05-06T01:43:48.557Z,96.13
2019-05-06T01:46:17.882Z,96.23
2019-05-06T01:48:50.115Z,96.30
2019-05-06T01:51:20.446Z,96.37
2019-05-06T01:53:50.375Z,96.43
2019-05-06T01:56:20.035Z,96.41
2019-05-06T01:58:49.596Z,96.49
2019-05-06T02:01:18.880Z,96.60
2019-05-06T02:03:48.210Z,96.63
2019-05-06T02:06:17.702Z,96.61
2019-05-06T02:08:47.077Z,96.71
2019-05-06T02:11:16.388Z,96.79
2019-05-06T02:13:45.817Z,96.83
2019-05-06T02:16:15.301Z,96.96
2019-05-06T02:18:45.191Z,96.98
2019-05-06T02:21:23.790Z,96.97
2019-05-06T02:23:57.053Z,97.02
2019-05-06T02:26:26.514Z,97.08
2019-05-06T02:28:57.569Z,97.11
2019-05-06T02:31:46.020Z,97.00
2019-05-06T02:34:25.403Z,96.93
2019-05-06T02:37:07.392Z,96.91
2019-05-06T02:39:36.923Z,96.97
2019-05-06T02:42:08.085Z,97.12
2019-05-06T02:44:37.542Z,97.20
2019-05-06T02:47:29.011Z,97.26
2019-05-06T02:50:04.473Z,97.26
2019-05-06T02:52:33.153Z,97.16
2019-05-06T02:55:06.068Z,97.09
2019-05-06T02:57:33.734Z,97.35
2019-05-06T03:00:05.054Z,97.44
2019-05-06T03:02:43.076Z,97.51
2019-05-06T03:05:06.040Z,97.66
2019-05-06T03:07:37.773Z,97.76
2019-05-06T03:10:08.294Z,97.76
2019-05-06T03:12:37.688Z,97.79
2019-05-06T03:15:07.342Z,97.78
2019-05-06T03:17:36.848Z,97.80
2019-05-06T03:20:08.072Z,97.71
2019-05-06T03:22:59.515Z,97.73
2019-05-06T03:25:33.198Z,97.75
2019-05-06T03:28:04.207Z,97.71
2019-05-06T03:30:36.363Z,97.68
2019-05-06T03:35:50.448Z,97.68
2019-05-06T03:38:07.378Z,97.66
2019-05-06T03:40:41.323Z,97.69
2019-05-06T03:43:07.883Z,97.70
2019-05-06T03:45:56.209Z,97.88
2019-05-06T03:48:33.275Z,97.95
2019-05-06T03:51:04.165Z,97.99
2019-05-06T03:53:35.504Z,98.11
2019-05-06T03:56:04.973Z,98.23
2019-05-06T03:58:37.162Z,98.22
2019-05-06T04:01:06.541Z,98.29
2019-05-06T04:03:47.239Z,98.59
2019-05-06T04:06:07.080Z,98.63
2019-05-06T04:08:36.596Z,98.57
2019-05-06T04:11:06.353Z,98.60
2019-05-06T04:13:36.208Z,98.75
2019-05-06T04:16:27.661Z,98.77
2019-05-06T04:19:05.122Z,98.92
2019-05-06T04:21:43.703Z,99.10
2019-05-06T04:24:22.895Z,99.22
2019-05-06T04:26:57.445Z,99.34
2019-05-06T04:29:29.060Z,99.33
2019-05-06T04:31:58.580Z,99.99
2019-05-06T04:34:28.003Z,99.81
2019-05-06T04:36:57.834Z,99.81
2019-05-06T04:39:27.325Z,99.64
2019-05-06T04:41:57.241Z,99.26
2019-05-06T04:44:27.345Z,98.69
2019-05-06T04:46:56.945Z,98.16
2019-05-06T04:49:26.323Z,98.25
2019-05-06T04:51:55.681Z,98.19
2019-05-06T04:54:26.652Z,98.31
2019-05-06T04:56:56.395Z,98.31
2019-05-06T04:59:26.026Z,98.30
2019-05-06T05:01:55.413Z,97.64
2019-05-06T05:04:32.258Z,97.69
2019-05-06T05:06:56.161Z,97.79
2019-05-06T05:09:26.696Z,97.85
2019-05-06T05:12:02.481Z,97.82
2019-05-06T05:14:42.421Z,97.63
2019-05-06T05:17:33.826Z,97.24
2019-05-06T05:20:03.531Z,97.18
2019-05-06T05:22:32.866Z,96.68
2019-05-06T05:25:03.442Z,96.49
2019-05-06T05:27:33.212Z,96.51
2019-05-06T05:30:02.622Z,96.59
2019-05-06T05:32:32.252Z,96.60
2019-05-06T05:35:02.158Z,96.54
2019-05-06T05:37:32.874Z,96.68
2019-05-06T05:40:03.192Z,96.46
2019-05-06T05:42:52.215Z,95.90
2019-05-06T05:45:22.191Z,95.44
2019-05-06T05:47:52.256Z,94.75
2019-05-06T05:50:26.755Z,93.95
2019-05-06T05:52:57.569Z,92.88
2019-05-06T05:55:28.244Z,92.91
2019-05-06T05:57:58.625Z,93.36
2019-05-06T06:00:32.260Z,93.31
2019-05-06T06:03:02.912Z,92.70
2019-05-06T06:05:33.020Z,90.77
2019-05-06T06:08:03.489Z,89.57
2019-05-06T06:10:56.443Z,88.39
2019-05-06T06:13:26.017Z,89.08
2019-05-06T06:16:13.250Z,88.93
2019-05-06T06:18:53.224Z,86.83
2019-05-06T06:21:32.240Z,86.68
2019-05-06T06:24:07.110Z,85.79
2019-05-06T06:26:36.708Z,82.87
2019-05-06T06:29:06.159Z,82.38
2019-05-06T06:31:42.765Z,81.36
2019-05-06T06:34:18.507Z,82.83
2019-05-06T06:36:57.365Z,82.12
2019-05-06T06:39:32.665Z,82.66
2019-05-06T06:42:02.905Z,81.85
2019-05-06T06:44:34.064Z,82.42
2019-05-06T06:47:03.642Z,78.30
2019-05-06T06:49:33.216Z,77.97
2019-05-06T06:52:03.050Z,78.09
2019-05-06T06:54:32.766Z,79.15
2019-05-06T06:57:27.299Z,79.26
2019-05-06T07:00:12.493Z,80.00
2019-05-06T07:02:49.041Z,79.11
2019-05-06T07:05:33.198Z,75.50
2019-05-06T07:08:02.983Z,74.79
2019-05-06T07:10:44.760Z,76.37
2019-05-06T07:13:15.484Z,71.63
2019-05-06T07:15:45.182Z,72.17
2019-05-06T07:18:14.599Z,71.17
2019-05-06T07:21:04.951Z,72.41
2019-05-06T07:23:35.437Z,68.44
2019-05-06T07:26:04.843Z,70.39
2019-05-06T07:28:34.238Z,66.95
2019-05-06T07:31:17.427Z,67.89
2019-05-06T07:33:34.774Z,64.80
2019-05-06T07:36:04.260Z,65.37
2019-05-06T07:38:33.768Z,67.21
2019-05-06T07:41:17.995Z,67.68
2019-05-06T07:44:13.027Z,63.38
2019-05-06T07:46:57.921Z,63.14
2019-05-06T07:49:27.306Z,64.86
2019-05-06T07:51:56.849Z,65.19
2019-05-06T07:54:26.434Z,62.63
2019-05-06T07:56:55.868Z,62.20
2019-05-06T07:59:25.359Z,62.01
2019-05-06T08:01:54.888Z,62.42
2019-05-06T08:04:24.260Z,60.17
2019-05-06T08:06:53.742Z,61.00
2019-05-06T08:09:23.170Z,57.78
2019-05-06T08:11:53.144Z,59.92
2019-05-06T08:14:24.386Z,59.38
2019-05-06T08:17:04.224Z,55.80
2019-05-06T08:19:33.862Z,55.99
2019-05-06T08:22:06.550Z,55.45
2019-05-06T08:24:36.726Z,54.49
2019-05-06T08:27:06.217Z,54.98
2019-05-06T08:29:35.734Z,56.22
2019-05-06T08:32:05.275Z,55.28
2019-05-06T08:34:34.689Z,56.02
2019-05-06T08:37:26.048Z,59.37
2019-05-06T08:39:55.640Z,59.85
2019-05-06T08:42:25.026Z,59.40
2019-05-06T08:44:54.408Z,60.88
2019-05-06T08:47:24.875Z,62.11
2019-05-06T08:50:22.418Z,60.42
2019-05-06T08:53:24.271Z,59.88
2019-05-06T08:55:54.127Z,58.10
2019-05-06T08:58:43.197Z,56.77
2019-05-06T09:01:15.469Z,55.49
2019-05-06T09:03:44.888Z,51.72
2019-05-06T09:06:26.527Z,49.93
2019-05-06T09:08:46.037Z,49.57
2019-05-06T09:11:15.509Z,47.60
2019-05-06T09:13:44.950Z,46.71
2019-05-06T09:16:14.416Z,47.35
2019-05-06T09:18:44.211Z,46.67
2019-05-06T09:21:14.738Z,47.31
2019-05-06T09:23:44.239Z,47.34
2019-05-06T09:26:18.101Z,47.83
2019-05-06T09:28:55.902Z,49.02
2019-05-06T09:31:35.061Z,47.48
2019-05-06T09:34:23.216Z,47.29
2019-05-06T09:37:13.327Z,49.15
2019-05-06T09:39:43.304Z,49.37
2019-05-06T09:42:13.053Z,48.51
2019-05-06T09:44:43.015Z,47.79
2019-05-06T09:47:22.821Z,47.55
2019-05-06T09:49:53.057Z,44.71
2019-05-06T09:52:23.293Z,42.90
2019-05-06T09:54:59.397Z,44.16
2019-05-06T09:57:32.684Z,44.71
2019-05-06T10:00:04.715Z,45.23
2019-05-06T10:02:33.995Z,45.46
2019-05-06T10:05:06.035Z,43.99
2019-05-06T10:07:35.455Z,41.47
2019-05-06T10:10:05.000Z,42.59
2019-05-06T10:12:34.333Z,42.77
2019-05-06T10:15:03.752Z,40.15
2019-05-06T10:17:33.374Z,40.58
2019-05-06T10:20:03.134Z,40.52
2019-05-06T10:22:32.698Z,38.74
2019-05-06T10:25:03.625Z,38.68
2019-05-06T10:27:33.810Z,40.64
2019-05-06T10:30:06.762Z,42.62
2019-05-06T10:33:07.314Z,40.98
2019-05-06T10:35:37.080Z,41.95
2019-05-06T10:39:02.197Z,41.86
2019-05-06T10:41:35.272Z,43.34
2019-05-06T10:44:33.451Z,42.29
2019-05-06T10:47:03.049Z,42.81
2019-05-06T10:49:33.689Z,42.62
2019-05-06T10:52:13.187Z,42.41
2019-05-06T10:54:42.709Z,43.00
2019-05-06T10:57:22.168Z,43.95
2019-05-06T10:59:52.227Z,44.31
2019-05-06T11:02:52.368Z,43.48
2019-05-06T11:05:24.316Z,43.02
2019-05-06T11:07:54.416Z,43.63
2019-05-06T11:10:29.536Z,41.82
2019-05-06T11:12:55.057Z,42.47
2019-05-06T11:15:24.606Z,42.58
2019-05-06T11:17:54.019Z,43.73
2019-05-06T11:20:24.158Z,42.76
2019-05-06T11:22:53.896Z,43.82
2019-05-06T11:25:23.286Z,42.62
2019-05-06T11:27:52.981Z,43.01
2019-05-06T11:30:47.056Z,45.12
2019-05-06T11:33:42.470Z,43.02
2019-05-06T11:36:20.081Z,42.53
2019-05-06T11:38:49.594Z,41.96
2019-05-06T11:41:19.136Z,41.15
2019-05-06T11:43:48.563Z,41.94
2019-05-06T11:46:18.018Z,42.70
2019-05-06T11:48:47.402Z,43.11
2019-05-06T11:51:18.727Z,41.86
2019-05-06T11:53:48.247Z,43.40
2019-05-06T11:56:17.695Z,41.69
2019-05-06T11:58:58.990Z,41.17
2019-05-06T12:01:32.899Z,42.13
2019-05-06T12:04:02.975Z,43.34
2019-05-06T12:06:33.157Z,41.89
2019-05-06T12:09:06.481Z,42.68
2019-05-06T12:11:36.203Z,43.87
2019-05-06T12:14:05.936Z,45.05
2019-05-06T12:16:35.317Z,47.63
2019-05-06T12:19:04.764Z,47.13
2019-05-06T12:21:34.612Z,45.98
2019-05-06T12:24:04.149Z,42.71
2019-05-06T12:26:33.676Z,42.15
2019-05-06T12:29:03.117Z,43.25
2019-05-06T12:31:32.950Z,42.38
2019-05-06T12:34:02.931Z,43.33
2019-05-06T12:36:32.786Z,41.25
2019-05-06T12:39:23.463Z,42.68
2019-05-06T12:42:15.685Z,42.04
2019-05-06T12:45:07.239Z,40.58
2019-05-06T12:47:50.341Z,42.68
2019-05-06T12:50:22.512Z,42.43
2019-05-06T12:52:52.560Z,40.36
2019-05-06T12:55:25.213Z,40.84
2019-05-06T12:57:55.232Z,41.67
2019-05-06T13:00:25.880Z,42.39
2019-05-06T13:02:55.305Z,40.81
2019-05-06T13:05:24.805Z,41.55
2019-05-06T13:07:54.250Z,42.76
2019-05-06T13:10:24.307Z,42.83
2019-05-06T13:12:59.043Z,42.85
2019-05-06T13:15:28.483Z,43.87
2019-05-06T13:17:57.960Z,43.82
2019-05-06T13:20:27.477Z,45.32
2019-05-06T13:23:15.904Z,40.52
2019-05-06T13:25:42.998Z,39.23
2019-05-06T13:28:16.062Z,37.72
2019-05-06T13:30:45.594Z,38.03
2019-05-06T13:33:34.490Z,37.76
2019-05-06T13:36:04.093Z,35.67
2019-05-06T13:38:33.583Z,36.39
2019-05-06T13:41:03.480Z,39.89
2019-05-06T13:43:48.316Z,35.48
2019-05-06T13:46:23.720Z,34.12
2019-05-06T13:49:13.367Z,33.20
2019-05-06T13:51:47.852Z,33.65
2019-05-06T13:54:17.256Z,33.40
2019-05-06T13:56:48.928Z,35.17
2019-05-06T13:59:18.085Z,37.31
2019-05-06T14:01:56.838Z,37.22
2019-05-06T14:04:26.599Z,38.28
2019-05-06T14:06:56.074Z,40.20
2019-05-06T14:09:32.549Z,40.88
2019-05-06T14:11:56.976Z,40.84
2019-05-06T14:14:26.856Z,41.76
2019-05-06T14:16:56.456Z,42.46
2019-05-06T14:19:25.837Z,43.77
2019-05-06T14:21:55.316Z,43.72
2019-05-06T14:24:24.824Z,42.24
2019-05-06T14:26:59.242Z,43.37
2019-05-06T14:29:53.772Z,44.13
2019-05-06T14:32:23.746Z,45.11
2019-05-06T14:34:53.317Z,44.96
2019-05-06T14:37:22.752Z,43.94
2019-05-06T14:39:59.108Z,43.58
2019-05-06T14:42:25.312Z,42.86
2019-05-06T14:44:54.857Z,41.90
2019-05-06T14:47:26.791Z,41.57
2019-05-06T14:49:56.198Z,42.21
2019-05-06T14:52:25.670Z,42.91
2019-05-06T14:55:04.093Z,44.08
2019-05-06T14:57:33.611Z,46.40
2019-05-06T15:00:04.364Z,47.34
2019-05-06T15:02:34.021Z,47.37
2019-05-06T15:05:03.556Z,47.46
2019-05-06T15:07:35.135Z,48.19
2019-05-06T15:10:19.309Z,48.47
2019-05-06T15:12:35.754Z,48.27
2019-05-06T15:15:05.320Z,47.40
2019-05-06T15:17:36.815Z,47.86
2019-05-06T15:20:06.167Z,48.55
2019-05-06T15:22:35.652Z,47.15
2019-05-06T15:25:05.645Z,47.14
2019-05-06T15:27:35.100Z,47.49
2019-05-06T15:30:06.896Z,47.82
2019-05-06T15:32:38.093Z,48.07
2019-05-06T15:35:23.961Z,48.02
2019-05-06T15:38:05.585Z,48.29
2019-05-06T15:40:36.668Z,48.29
2019-05-06T15:43:06.500Z,47.37
2019-05-06T15:45:35.938Z,48.45
2019-05-06T15:48:05.348Z,48.79
2019-05-06T15:50:34.950Z,48.47
2019-05-06T15:53:04.431Z,49.29
2019-05-06T15:55:33.917Z,49.04
2019-05-06T15:58:03.723Z,49.26
2019-05-06T16:00:33.309Z,49.96
2019-05-06T16:03:02.890Z,51.01
2019-05-06T16:05:34.412Z,52.20
2019-05-06T16:08:04.987Z,52.83
2019-05-06T16:10:50.386Z,53.37
2019-05-06T16:13:05.583Z,53.29
2019-05-06T16:15:35.183Z,52.71
2019-05-06T16:18:04.895Z,53.29
2019-05-06T16:20:34.425Z,53.09
2019-05-06T16:23:11.919Z,53.34
2019-05-06T16:25:42.325Z,54.68
2019-05-06T16:28:13.002Z,56.88
2019-05-06T16:30:42.764Z,59.92
2019-05-06T16:33:15.294Z,60.31
2019-05-06T16:35:43.400Z,63.85
2019-05-06T16:38:13.269Z,66.02
2019-05-06T16:40:45.386Z,66.87
2019-05-06T16:43:14.039Z,68.70
2019-05-06T16:45:45.452Z,69.66
2019-05-06T16:48:14.802Z,70.90
2019-05-06T16:50:44.203Z,71.12
2019-05-06T16:53:13.763Z,72.43
2019-05-06T16:56:02.266Z,74.38
2019-05-06T16:58:34.525Z,75.01
2019-05-06T17:01:03.987Z,76.41
2019-05-06T17:03:40.246Z,78.64
2019-05-06T17:06:17.268Z,79.91
2019-05-06T17:08:46.750Z,81.18
2019-05-06T17:11:26.808Z,81.88
2019-05-06T17:13:47.490Z,82.32
2019-05-06T17:16:18.799Z,83.46
2019-05-06T17:18:48.288Z,83.57
2019-05-06T17:21:17.778Z,84.15
2019-05-06T17:23:47.557Z,85.18
2019-05-06T17:26:17.007Z,85.23
2019-05-06T17:29:05.414Z,85.58
2019-05-06T17:31:53.839Z,85.70
2019-05-06T17:34:33.140Z,85.38
2019-05-06T17:37:15.618Z,86.02
2019-05-06T17:39:45.250Z,86.12
2019-05-06T17:42:14.877Z,86.14
2019-05-06T17:44:44.441Z,86.12
2019-05-06T17:47:34.598Z,86.53
2019-05-06T17:50:04.387Z,86.72
2019-05-06T17:52:34.229Z,87.01
2019-05-06T17:55:04.041Z,87.04
2019-05-06T17:57:33.516Z,87.41
2019-05-06T18:00:03.361Z,87.41
2019-05-06T18:02:33.347Z,87.43
2019-05-06T18:05:03.328Z,87.33
2019-05-06T18:07:32.858Z,87.32
2019-05-06T18:10:03.008Z,87.33
2019-05-06T18:12:33.289Z,87.22
2019-05-06T18:15:03.190Z,87.95
2019-05-06T18:17:33.559Z,88.55
2019-05-06T18:20:03.422Z,88.93
2019-05-06T18:22:33.021Z,89.23
2019-05-06T18:25:02.699Z,86.34
2019-05-06T18:27:32.712Z,87.93
2019-05-06T18:30:15.073Z,88.06
2019-05-06T18:32:34.697Z,88.08
2019-05-06T18:35:04.718Z,88.36
2019-05-06T18:37:34.323Z,88.21
2019-05-06T18:40:03.872Z,88.73
2019-05-06T18:42:33.657Z,89.09
2019-05-06T18:45:03.653Z,89.32
2019-05-06T18:47:33.401Z,89.67
2019-05-06T18:50:02.982Z,90.15
2019-05-06T18:52:32.735Z,90.77
2019-05-06T18:55:02.185Z,90.24
2019-05-06T18:57:32.844Z,90.73
2019-05-06T19:00:03.236Z,91.20
2019-05-06T19:02:32.896Z,92.93
2019-05-06T19:05:24.940Z,93.30
2019-05-06T19:07:53.033Z,93.35
2019-05-06T19:10:28.124Z,93.75
2019-05-06T19:12:57.877Z,93.73
2019-05-06T19:15:28.931Z,93.67
2019-05-06T19:17:58.535Z,93.57
2019-05-06T19:20:28.205Z,93.52
2019-05-06T19:22:57.821Z,93.55
2019-05-06T19:25:27.382Z,93.68
2019-05-06T19:27:56.959Z,93.75
2019-05-06T19:30:26.823Z,93.92
2019-05-06T19:32:56.321Z,94.01
2019-05-06T19:35:25.939Z,94.25
2019-05-06T19:37:55.389Z,94.50
2019-05-06T19:40:24.901Z,94.64
2019-05-06T19:42:54.492Z,94.73
2019-05-06T19:45:23.895Z,94.73
2019-05-06T19:47:53.273Z,94.84
2019-05-06T19:50:25.734Z,94.94
2019-05-06T19:52:54.470Z,95.10
2019-05-06T19:55:24.031Z,95.15
2019-05-06T19:57:53.474Z,95.26
2019-05-06T20:00:23.939Z,95.40
2019-05-06T20:02:53.436Z,95.50
2019-05-06T20:05:44.592Z,95.66
2019-05-06T20:08:33.051Z,95.84
2019-05-06T20:11:18.507Z,95.96
2019-05-06T20:13:47.911Z,95.80
2019-05-06T20:16:19.922Z,96.02
2019-05-06T20:18:48.519Z,96.24
2019-05-06T20:21:18.000Z,96.85
2019-05-06T20:23:47.495Z,96.85
2019-05-06T20:26:16.985Z,97.17
2019-05-06T20:28:46.370Z,97.27
2019-05-06T20:31:15.880Z,97.54
2019-05-06T20:33:45.409Z,97.53
2019-05-06T20:36:14.889Z,97.62
2019-05-06T20:38:44.337Z,98.03
2019-05-06T20:41:13.861Z,98.07
2019-05-06T20:43:43.423Z,98.13
2019-05-06T20:46:12.931Z,98.29
2019-05-06T20:48:42.428Z,98.39
2019-05-06T20:51:12.428Z,98.38
2019-05-06T20:53:43.152Z,98.58
2019-05-06T20:56:12.856Z,98.52
2019-05-06T20:58:42.340Z,98.73
2019-05-06T21:01:11.880Z,98.82
2019-05-06T21:03:42.374Z,98.98
2019-05-06T21:06:13.161Z,98.86
2019-05-06T21:08:42.782Z,99.25
2019-05-06T21:11:25.362Z,99.18
2019-05-06T21:13:43.402Z,99.39
2019-05-06T21:16:13.088Z,99.31
2019-05-06T21:18:42.510Z,99.69
2019-05-06T21:21:13.559Z,99.82
2019-05-06T21:23:43.359Z,99.85
2019-05-06T21:26:13.657Z,99.98
2019-05-06T21:28:46.292Z,99.89
2019-05-06T21:31:14.525Z,100.00
2019-05-06T21:33:43.899Z,100.00
2019-05-06T21:36:13.358Z,100.00
2019-05-06T21:38:42.911Z,100.00
2019-05-06T21:41:12.481Z,100.00
2019-05-06T21:43:47.067Z,100.00
2019-05-06T21:46:13.147Z,100.00
2019-05-06T21:48:42.687Z,100.00
2019-05-06T21:51:12.728Z,100.00
2019-05-06T21:53:42.344Z,100.00
2019-05-06T21:56:13.060Z,100.00
2019-05-06T21:58:43.189Z,100.00
2019-05-06T22:01:12.946Z,100.00
2019-05-06T22:03:43.341Z,100.00
2019-05-06T22:06:13.191Z,100.00
2019-05-06T22:08:42.749Z,100.00
2019-05-06T22:11:12.215Z,100.00
2019-05-06T22:13:42.579Z,100.00
2019-05-06T22:16:12.623Z,100.00
2019-05-06T22:18:43.182Z,100.00
2019-05-06T22:21:26.419Z,100.00
2019-05-06T22:24:04.253Z,100.00
2019-05-06T22:26:32.583Z,100.00
2019-05-06T22:29:02.341Z,100.00
2019-05-06T22:31:33.097Z,100.00
2019-05-06T22:34:02.700Z,100.00
2019-05-06T22:36:32.447Z,100.00
2019-05-06T22:39:02.568Z,100.00
2019-05-06T22:41:32.685Z,100.00
2019-05-06T22:44:13.129Z,100.00
2019-05-06T22:46:33.693Z,100.00
2019-05-06T22:49:03.245Z,100.00
2019-05-06T22:51:32.651Z,100.00
2019-05-06T22:54:02.857Z,100.00
2019-05-06T22:56:32.766Z,100.00
2019-05-06T22:59:03.273Z,100.00
2019-05-06T23:01:54.264Z,100.00
2019-05-06T23:04:24.074Z,100.00
2019-05-06T23:06:53.712Z,100.00
2019-05-06T23:09:24.983Z,100.00
2019-05-06T23:11:54.196Z,100.00
2019-05-06T23:14:31.059Z,100.00
2019-05-06T23:16:54.759Z,100.00
2019-05-06T23:19:24.578Z,100.00
2019-05-06T23:21:54.299Z,100.00
2019-05-06T23:24:23.657Z,100.00
2019-05-06T23:26:54.774Z,100.00
2019-05-06T23:29:24.143Z,100.00
2019-05-06T23:31:53.624Z,100.00
2019-05-06T23:34:23.291Z,100.00
2019-05-06T23:37:26.457Z,100.00
2019-05-06T23:40:35.536Z,100.00
2019-05-06T23:43:42.614Z,100.00
2019-05-06T23:46:47.457Z,100.00
2019-05-06T23:49:52.889Z,100.00
2019-05-06T23:52:58.071Z,100.00
2019-05-06T23:56:03.303Z,100.00
2019-05-06T23:58:32.722Z,100.00
